createdAt,value
2022-09-12T00:01:26.624Z,14.00
2022-09-12T00:03:58.218Z,14.01
2022-09-12T00:06:34.570Z,14.03
2022-09-12T00:09:10.816Z,14.05
2022-09-12T00:11:41.882Z,14.04
2022-09-12T00:14:12.306Z,14.03
2022-09-12T00:16:41.322Z,14.00
2022-09-12T00:19:10.885Z,14.02
2022-09-12T00:21:40.309Z,14.02
2022-09-12T00:24:10.590Z,14.00
2022-09-12T00:26:38.909Z,13.99
2022-09-12T00:29:06.942Z,13.99
2022-09-12T00:31:35.572Z,13.99
2022-09-12T00:34:04.062Z,13.96
2022-09-12T00:36:32.206Z,13.94
2022-09-12T00:39:00.974Z,13.91
2022-09-12T00:41:32.771Z,13.90
2022-09-12T00:44:24.725Z,13.86
2022-09-12T00:47:04.845Z,13.84
2022-09-12T00:49:41.707Z,13.83
2022-09-12T00:52:17.075Z,13.82
2022-09-12T00:54:58.223Z,13.83
2022-09-12T00:57:33.280Z,13.82
2022-09-12T01:00:14.932Z,13.82
2022-09-12T01:02:46.201Z,13.82
2022-09-12T01:05:15.554Z,13.83
2022-09-12T01:07:44.871Z,13.83
2022-09-12T01:10:13.576Z,13.84
2022-09-12T01:12:43.336Z,13.85
2022-09-12T01:15:11.970Z,13.89
2022-09-12T01:18:04.673Z,13.91
2022-09-12T01:20:42.946Z,13.93
2022-09-12T01:23:31.265Z,13.94
2022-09-12T01:26:23.464Z,13.96
2022-09-12T01:29:26.888Z,13.98
2022-09-12T01:32:11.010Z,13.97
2022-09-12T01:35:00.895Z,13.96
2022-09-12T01:37:53.087Z,13.95
2022-09-12T01:40:36.179Z,13.94
2022-09-12T01:43:28.570Z,13.90
2022-09-12T01:46:05.753Z,13.87
2022-09-12T01:48:40.374Z,13.85
2022-09-12T01:51:18.791Z,13.82
2022-09-12T01:53:53.232Z,13.83
2022-09-12T01:56:29.817Z,13.84
2022-09-12T01:59:15.763Z,13.83
2022-09-12T02:01:55.694Z,13.85
2022-09-12T02:04:33.998Z,13.89
2022-09-12T02:07:27.535Z,13.92
2022-09-12T02:10:06.551Z,13.95
2022-09-12T02:12:45.026Z,13.98
2022-09-12T02:15:16.444Z,13.97
2022-09-12T02:17:49.820Z,13.96
2022-09-12T02:20:46.876Z,13.98
2022-09-12T02:23:20.791Z,14.01
2022-09-12T02:25:55.363Z,14.05
2022-09-12T02:28:27.885Z,14.08
2022-09-12T02:31:19.390Z,14.12
2022-09-12T02:34:16.558Z,14.15
2022-09-12T02:36:54.770Z,14.17
2022-09-12T02:39:23.155Z,14.19
2022-09-12T02:41:53.214Z,14.21
2022-09-12T02:44:22.692Z,14.20
2022-09-12T02:46:55.918Z,14.17
2022-09-12T02:49:24.173Z,14.07
2022-09-12T02:51:52.260Z,13.93
2022-09-12T02:54:21.294Z,13.81
2022-09-12T02:56:49.480Z,13.73
2022-09-12T02:59:21.191Z,13.68
2022-09-12T03:01:57.593Z,13.67
2022-09-12T03:04:50.244Z,13.69
2022-09-12T03:07:31.587Z,13.68
2022-09-12T03:10:34.535Z,13.69
2022-09-12T03:13:25.093Z,13.66
2022-09-12T03:16:14.071Z,13.62
2022-09-12T03:19:06.773Z,13.58
2022-09-12T03:21:40.849Z,13.54
2022-09-12T03:24:15.508Z,13.49
2022-09-12T03:27:06.190Z,13.44
2022-09-12T03:29:39.521Z,13.39
2022-09-12T03:32:08.354Z,13.34
2022-09-12T03:34:37.822Z,13.26
2022-09-12T03:37:06.428Z,13.17
2022-09-12T03:39:34.644Z,13.08
2022-09-12T03:42:03.967Z,13.03
2022-09-12T03:44:32.097Z,13.02
2022-09-12T03:47:00.533Z,13.00
2022-09-12T03:49:28.908Z,12.99
2022-09-12T03:51:57.310Z,12.98
2022-09-12T03:54:31.339Z,12.99
2022-09-12T03:56:59.772Z,13.00
2022-09-12T03:59:28.043Z,13.00
2022-09-12T04:01:56.906Z,13.02
2022-09-12T04:04:26.102Z,13.01
2022-09-12T04:07:04.357Z,12.97
2022-09-12T04:09:33.489Z,12.95
2022-09-12T04:12:01.888Z,12.92
2022-09-12T04:14:30.066Z,12.91
2022-09-12T04:16:58.597Z,12.94
2022-09-12T04:19:29.613Z,12.90
2022-09-12T04:21:57.767Z,12.87
2022-09-12T04:24:26.800Z,12.89
2022-09-12T04:26:55.244Z,12.88
2022-09-12T04:29:24.128Z,12.88
2022-09-12T04:31:52.276Z,12.86
2022-09-12T04:34:21.310Z,12.85
2022-09-12T04:36:49.840Z,12.83
2022-09-12T04:39:17.970Z,12.80
2022-09-12T04:41:46.454Z,12.75
2022-09-12T04:44:15.094Z,12.75
2022-09-12T04:46:46.929Z,12.71
2022-09-12T04:49:37.781Z,12.60
2022-09-12T04:52:26.698Z,12.49
2022-09-12T04:54:57.498Z,12.39
2022-09-12T04:57:40.007Z,12.32
2022-09-12T05:00:30.295Z,12.26
2022-09-12T05:03:20.581Z,12.22
2022-09-12T05:05:53.264Z,12.25
2022-09-12T05:08:29.960Z,12.33
2022-09-12T05:11:05.151Z,12.41
2022-09-12T05:13:37.036Z,12.49
2022-09-12T05:16:06.826Z,12.68
2022-09-12T05:18:41.634Z,12.72
2022-09-12T05:21:15.088Z,12.70
2022-09-12T05:23:49.617Z,12.71
2022-09-12T05:26:20.663Z,12.75
2022-09-12T05:28:52.275Z,12.77
2022-09-12T05:31:28.378Z,12.89
2022-09-12T05:33:57.753Z,13.04
2022-09-12T05:36:31.843Z,13.13
2022-09-12T05:39:01.165Z,13.04
2022-09-12T05:41:31.597Z,13.01
2022-09-12T05:44:03.272Z,13.04
2022-09-12T05:46:38.037Z,13.06
2022-09-12T05:49:10.980Z,13.42
2022-09-12T05:51:50.906Z,13.65
2022-09-12T05:54:21.387Z,13.67
2022-09-12T05:56:52.110Z,13.60
2022-09-12T05:59:22.748Z,13.44
2022-09-12T06:01:52.537Z,13.42
2022-09-12T06:04:20.842Z,13.36
2022-09-12T06:06:51.531Z,13.31
2022-09-12T06:09:19.938Z,13.25
2022-09-12T06:11:48.687Z,13.20
2022-09-12T06:14:18.768Z,13.28
2022-09-12T06:16:49.161Z,13.36
2022-09-12T06:19:22.402Z,13.47
2022-09-12T06:21:51.812Z,13.66
2022-09-12T06:24:21.359Z,14.07
2022-09-12T06:26:52.948Z,14.44
2022-09-12T06:29:22.316Z,14.74
2022-09-12T06:31:52.606Z,14.75
2022-09-12T06:34:25.541Z,14.75
2022-09-12T06:36:54.421Z,14.74
2022-09-12T06:39:23.860Z,14.75
2022-09-12T06:41:57.529Z,14.53
2022-09-12T06:44:35.185Z,14.49
2022-09-12T06:47:03.770Z,14.75
2022-09-12T06:49:34.604Z,14.85
2022-09-12T06:52:03.109Z,14.92
2022-09-12T06:54:34.960Z,15.15
2022-09-12T06:57:04.909Z,15.50
2022-09-12T06:59:33.070Z,15.54
2022-09-12T07:02:01.741Z,15.67
2022-09-12T07:04:30.572Z,15.44
2022-09-12T07:06:59.282Z,15.21
2022-09-12T07:09:27.562Z,15.47
2022-09-12T07:11:56.258Z,15.76
2022-09-12T07:14:26.134Z,16.17
2022-09-12T07:16:54.382Z,16.25
2022-09-12T07:19:22.620Z,16.76
2022-09-12T07:21:56.614Z,16.94
2022-09-12T07:24:27.459Z,16.94
2022-09-12T07:26:56.277Z,16.91
2022-09-12T07:29:36.655Z,16.88
2022-09-12T07:32:07.921Z,16.99
2022-09-12T07:34:37.450Z,17.17
2022-09-12T07:37:06.463Z,17.16
2022-09-12T07:39:34.622Z,17.11
2022-09-12T07:42:03.047Z,17.34
2022-09-12T07:44:32.826Z,17.35
2022-09-12T07:47:01.562Z,17.30
2022-09-12T07:49:30.848Z,17.19
2022-09-12T07:51:59.329Z,17.07
2022-09-12T07:54:28.135Z,16.94
2022-09-12T07:56:56.852Z,16.96
2022-09-12T07:59:41.849Z,16.95
2022-09-12T08:02:17.103Z,17.24
2022-09-12T08:04:48.902Z,17.40
2022-09-12T08:07:19.341Z,17.33
2022-09-12T08:09:47.795Z,17.27
2022-09-12T08:12:17.898Z,17.31
2022-09-12T08:14:46.383Z,17.48
2022-09-12T08:17:14.832Z,17.59
2022-09-12T08:19:43.077Z,17.78
2022-09-12T08:22:12.272Z,17.74
2022-09-12T08:24:41.866Z,17.63
2022-09-12T08:27:10.064Z,17.54
2022-09-12T08:29:39.223Z,17.63
2022-09-12T08:32:15.613Z,17.75
2022-09-12T08:34:44.894Z,17.54
2022-09-12T08:37:13.277Z,17.33
2022-09-12T08:39:42.099Z,18.02
2022-09-12T08:42:20.369Z,17.94
2022-09-12T08:45:17.136Z,17.72
2022-09-12T08:47:51.885Z,17.88
2022-09-12T08:50:22.721Z,17.97
2022-09-12T08:52:58.965Z,18.20
2022-09-12T08:55:36.696Z,18.10
2022-09-12T08:58:17.465Z,18.20
2022-09-12T09:00:54.265Z,18.29
2022-09-12T09:03:34.908Z,18.34
2022-09-12T09:06:18.572Z,18.07
2022-09-12T09:09:10.549Z,18.15
2022-09-12T09:12:08.286Z,18.38
2022-09-12T09:14:55.279Z,18.57
2022-09-12T09:17:29.402Z,18.55
2022-09-12T09:20:36.800Z,18.67
2022-09-12T09:23:41.305Z,18.98
2022-09-12T09:26:38.882Z,19.09
2022-09-12T09:29:14.981Z,19.12
2022-09-12T09:31:48.885Z,19.40
2022-09-12T09:34:31.749Z,19.46
2022-09-12T09:37:09.199Z,19.35
2022-09-12T09:39:53.052Z,19.26
2022-09-12T09:42:28.178Z,19.21
2022-09-12T09:45:00.554Z,19.09
2022-09-12T09:47:28.987Z,18.63
2022-09-12T09:49:57.271Z,18.58
2022-09-12T09:52:30.905Z,18.51
2022-09-12T09:55:02.118Z,18.34
2022-09-12T09:57:36.555Z,18.12
2022-09-12T10:00:21.836Z,18.45
2022-09-12T10:03:04.969Z,18.49
2022-09-12T10:05:44.258Z,18.28
2022-09-12T10:08:26.403Z,18.23
2022-09-12T10:11:20.834Z,18.51
2022-09-12T10:13:53.290Z,18.95
2022-09-12T10:16:22.279Z,19.10
2022-09-12T10:18:52.675Z,19.02
2022-09-12T10:21:41.331Z,19.29
2022-09-12T10:24:27.369Z,19.45
2022-09-12T10:27:07.498Z,19.54
2022-09-12T10:29:54.703Z,19.55
2022-09-12T10:32:31.028Z,19.39
2022-09-12T10:35:04.182Z,19.37
2022-09-12T10:37:39.593Z,19.43
2022-09-12T10:40:23.480Z,19.35
2022-09-12T10:42:54.597Z,19.21
2022-09-12T10:45:30.753Z,19.18
2022-09-12T10:48:06.804Z,19.32
2022-09-12T10:50:41.480Z,19.67
2022-09-12T10:53:20.637Z,19.98
2022-09-12T10:56:09.827Z,20.19
2022-09-12T10:59:03.543Z,20.27
2022-09-12T11:01:37.425Z,20.49
2022-09-12T11:04:05.803Z,20.65
2022-09-12T11:06:42.984Z,20.70
2022-09-12T11:09:26.665Z,20.55
2022-09-12T11:12:09.970Z,20.70
2022-09-12T11:14:52.767Z,20.65
2022-09-12T11:17:44.176Z,20.95
2022-09-12T11:20:49.496Z,20.72
2022-09-12T11:23:17.559Z,20.67
2022-09-12T11:26:02.668Z,20.57
2022-09-12T11:29:02.462Z,20.80
2022-09-12T11:31:57.246Z,20.86
2022-09-12T11:34:49.755Z,20.65
2022-09-12T11:37:20.814Z,20.93
2022-09-12T11:39:55.633Z,20.99
2022-09-12T11:42:32.049Z,21.04
2022-09-12T11:45:25.815Z,20.94
2022-09-12T11:47:58.836Z,20.66
2022-09-12T11:50:30.353Z,20.57
2022-09-12T11:53:12.563Z,20.63
2022-09-12T11:55:56.038Z,20.20
2022-09-12T11:58:28.816Z,20.02
2022-09-12T12:01:09.889Z,20.13
2022-09-12T12:03:44.760Z,20.55
2022-09-12T12:06:26.981Z,20.94
2022-09-12T12:08:55.753Z,21.14
2022-09-12T12:11:35.598Z,21.50
2022-09-12T12:14:24.036Z,21.13
2022-09-12T12:16:52.473Z,21.01
2022-09-12T12:19:34.137Z,20.50
2022-09-12T12:22:18.620Z,20.22
2022-09-12T12:25:00.299Z,19.85
2022-09-12T12:27:55.776Z,19.74
2022-09-12T12:30:56.164Z,19.69
2022-09-12T12:33:27.083Z,19.67
2022-09-12T12:35:57.952Z,19.59
2022-09-12T12:38:30.683Z,19.91
2022-09-12T12:41:16.783Z,20.32
2022-09-12T12:43:49.209Z,20.67
2022-09-12T12:46:20.495Z,20.30
2022-09-12T12:48:57.789Z,19.89
2022-09-12T12:51:37.046Z,19.40
2022-09-12T12:54:29.425Z,19.53
2022-09-12T12:57:03.073Z,19.88
2022-09-12T12:59:32.085Z,20.04
2022-09-12T13:02:00.701Z,19.97
2022-09-12T13:04:32.720Z,20.05
2022-09-12T13:07:08.827Z,20.26
2022-09-12T13:09:50.772Z,20.51
2022-09-12T13:12:27.305Z,20.91
2022-09-12T13:14:58.495Z,21.00
2022-09-12T13:17:34.896Z,21.05
2022-09-12T13:20:28.662Z,21.34
2022-09-12T13:22:57.718Z,20.87
2022-09-12T13:25:28.343Z,20.62
2022-09-12T13:28:00.710Z,20.44
2022-09-12T13:30:32.264Z,20.05
2022-09-12T13:33:10.997Z,19.99
2022-09-12T13:35:48.271Z,19.86
2022-09-12T13:38:35.016Z,19.61
2022-09-12T13:41:27.539Z,19.41
2022-09-12T13:43:56.051Z,19.15
2022-09-12T13:46:31.845Z,18.90
2022-09-12T13:49:06.174Z,18.84
2022-09-12T13:51:35.334Z,18.80
2022-09-12T13:54:05.731Z,18.84
2022-09-12T13:56:34.243Z,19.04
2022-09-12T13:59:03.227Z,19.14
2022-09-12T14:01:47.845Z,19.30
2022-09-12T14:04:42.665Z,19.50
2022-09-12T14:07:19.723Z,19.64
2022-09-12T14:09:59.909Z,19.71
2022-09-12T14:12:40.809Z,19.78
2022-09-12T14:15:22.280Z,19.78
2022-09-12T14:17:54.557Z,19.38
2022-09-12T14:20:24.452Z,18.99
2022-09-12T14:22:53.238Z,18.96
2022-09-12T14:25:25.176Z,19.16
2022-09-12T14:27:55.215Z,19.23
2022-09-12T14:30:30.902Z,19.33
2022-09-12T14:33:11.000Z,19.27
2022-09-12T14:36:10.589Z,19.25
2022-09-12T14:38:45.322Z,19.32
2022-09-12T14:41:21.382Z,19.35
2022-09-12T14:43:54.371Z,19.41
2022-09-12T14:46:34.701Z,19.42
2022-09-12T14:49:25.747Z,19.37
2022-09-12T14:52:01.241Z,19.25
2022-09-12T14:54:31.507Z,19.24
2022-09-12T14:57:07.091Z,19.11
2022-09-12T14:59:34.979Z,18.90
2022-09-12T15:02:20.194Z,18.62
2022-09-12T15:04:55.522Z,18.42
2022-09-12T15:07:38.606Z,18.21
2022-09-12T15:10:34.313Z,18.02
2022-09-12T15:13:09.208Z,17.80
2022-09-12T15:15:39.155Z,17.59
2022-09-12T15:18:07.318Z,17.43
2022-09-12T15:20:40.187Z,17.33
2022-09-12T15:23:18.690Z,17.31
2022-09-12T15:25:47.839Z,17.24
2022-09-12T15:28:21.549Z,17.18
2022-09-12T15:30:52.315Z,17.07
2022-09-12T15:33:23.099Z,17.01
2022-09-12T15:35:52.714Z,16.91
2022-09-12T15:38:26.335Z,16.83
2022-09-12T15:40:55.112Z,16.77
2022-09-12T15:43:25.082Z,16.74
2022-09-12T15:45:53.659Z,16.71
2022-09-12T15:48:22.025Z,16.67
2022-09-12T15:50:50.352Z,16.64
2022-09-12T15:53:18.471Z,16.63
2022-09-12T15:55:46.553Z,16.59
2022-09-12T15:58:14.689Z,16.51
2022-09-12T16:00:42.864Z,16.48
2022-09-12T16:03:23.012Z,16.48
2022-09-12T16:05:56.650Z,16.44
2022-09-12T16:08:25.366Z,16.40
2022-09-12T16:10:57.231Z,16.39
2022-09-12T16:13:25.791Z,16.35
2022-09-12T16:15:57.802Z,16.29
2022-09-12T16:18:26.107Z,16.23
2022-09-12T16:20:55.729Z,16.05
2022-09-12T16:23:24.746Z,16.10
2022-09-12T16:26:00.402Z,16.05
2022-09-12T16:28:29.491Z,16.02
2022-09-12T16:31:00.510Z,15.99
2022-09-12T16:33:30.052Z,15.94
2022-09-12T16:36:02.993Z,15.89
2022-09-12T16:38:32.098Z,15.82
2022-09-12T16:41:05.626Z,15.76
2022-09-12T16:43:35.945Z,15.69
2022-09-12T16:46:14.708Z,15.60
2022-09-12T16:48:49.355Z,15.53
2022-09-12T16:51:25.074Z,15.43
2022-09-12T16:53:54.980Z,15.34
2022-09-12T16:56:24.298Z,15.28
2022-09-12T16:58:54.082Z,15.22
2022-09-12T17:01:25.648Z,15.19
2022-09-12T17:03:56.432Z,15.19
2022-09-12T17:06:26.144Z,15.18
2022-09-12T17:09:00.790Z,15.16
2022-09-12T17:11:38.302Z,15.13
2022-09-12T17:14:08.617Z,15.12
2022-09-12T17:16:42.482Z,15.11
2022-09-12T17:19:20.527Z,15.11
2022-09-12T17:21:51.835Z,15.12
2022-09-12T17:24:20.959Z,15.12
2022-09-12T17:26:50.366Z,14.99
2022-09-12T17:29:18.402Z,15.13
2022-09-12T17:31:46.853Z,15.11
2022-09-12T17:34:16.399Z,15.08
2022-09-12T17:36:45.844Z,15.04
2022-09-12T17:39:14.649Z,15.02
2022-09-12T17:41:43.264Z,14.99
2022-09-12T17:44:13.499Z,14.98
2022-09-12T17:46:42.002Z,14.95
2022-09-12T17:49:18.810Z,14.94
2022-09-12T17:51:47.343Z,14.94
2022-09-12T17:54:17.858Z,14.94
2022-09-12T17:56:47.387Z,14.93
2022-09-12T17:59:21.625Z,14.92
2022-09-12T18:02:08.734Z,14.87
2022-09-12T18:04:37.885Z,14.82
2022-09-12T18:07:08.683Z,14.69
2022-09-12T18:09:36.991Z,14.35
2022-09-12T18:12:06.102Z,14.32
2022-09-12T18:14:34.328Z,14.16
2022-09-12T18:17:02.504Z,14.02
2022-09-12T18:19:30.711Z,13.91
2022-09-12T18:21:59.291Z,13.84
2022-09-12T18:24:28.033Z,13.80
2022-09-12T18:26:58.898Z,13.79
2022-09-12T18:29:28.088Z,13.75
2022-09-12T18:31:56.644Z,13.72
2022-09-12T18:34:24.905Z,13.69
2022-09-12T18:36:55.004Z,13.62
2022-09-12T18:39:27.427Z,13.58
2022-09-12T18:41:56.656Z,13.53
2022-09-12T18:44:24.791Z,13.51
2022-09-12T18:46:53.225Z,13.50
2022-09-12T18:49:21.398Z,13.51
2022-09-12T18:51:49.415Z,13.51
2022-09-12T18:54:18.103Z,13.53
2022-09-12T18:56:46.455Z,13.54
2022-09-12T18:59:15.126Z,13.47
2022-09-12T19:01:44.474Z,13.43
2022-09-12T19:04:13.834Z,13.44
2022-09-12T19:06:44.157Z,13.45
2022-09-12T19:09:15.251Z,13.44
2022-09-12T19:11:49.600Z,13.44
2022-09-12T19:14:20.228Z,13.42
2022-09-12T19:16:50.951Z,13.42
2022-09-12T19:19:19.855Z,13.41
2022-09-12T19:21:48.249Z,13.38
2022-09-12T19:24:17.315Z,13.35
2022-09-12T19:26:46.111Z,13.33
2022-09-12T19:29:16.757Z,13.33
2022-09-12T19:31:45.754Z,13.36
2022-09-12T19:34:15.484Z,13.40
2022-09-12T19:36:46.206Z,13.40
2022-09-12T19:39:17.402Z,13.44
2022-09-12T19:41:46.422Z,13.44
2022-09-12T19:44:14.911Z,13.44
2022-09-12T19:46:43.078Z,13.45
2022-09-12T19:49:13.202Z,13.45
2022-09-12T19:51:41.769Z,13.44
2022-09-12T19:54:09.940Z,13.41
2022-09-12T19:56:38.398Z,13.39
2022-09-12T19:59:06.534Z,13.35
2022-09-12T20:01:37.246Z,13.33
2022-09-12T20:04:06.808Z,13.33
2022-09-12T20:06:35.299Z,13.31
2022-09-12T20:09:03.945Z,13.28
2022-09-12T20:11:32.501Z,13.26
2022-09-12T20:14:00.615Z,13.22
2022-09-12T20:16:29.927Z,13.19
2022-09-12T20:19:01.327Z,13.13
2022-09-12T20:21:32.731Z,13.09
2022-09-12T20:24:12.085Z,13.08
2022-09-12T20:26:40.699Z,13.06
2022-09-12T20:29:10.921Z,13.05
2022-09-12T20:31:43.326Z,12.99
2022-09-12T20:34:16.366Z,12.96
2022-09-12T20:36:45.045Z,12.92
2022-09-12T20:39:15.894Z,12.88
2022-09-12T20:41:44.918Z,12.87
2022-09-12T20:44:13.128Z,12.81
2022-09-12T20:46:41.806Z,12.79
2022-09-12T20:49:10.089Z,12.79
2022-09-12T20:51:39.082Z,12.76
2022-09-12T20:54:07.995Z,12.78
2022-09-12T20:56:37.918Z,12.81
2022-09-12T20:59:06.576Z,12.80
2022-09-12T21:01:34.911Z,12.80
2022-09-12T21:04:03.632Z,12.79
2022-09-12T21:06:32.138Z,12.80
2022-09-12T21:09:00.733Z,12.78
2022-09-12T21:11:29.546Z,12.76
2022-09-12T21:13:58.668Z,12.76
2022-09-12T21:16:27.462Z,12.73
2022-09-12T21:18:58.126Z,12.72
2022-09-12T21:21:27.233Z,12.72
2022-09-12T21:23:59.910Z,12.73
2022-09-12T21:26:28.543Z,12.69
2022-09-12T21:28:56.837Z,12.67
2022-09-12T21:31:25.901Z,12.67
2022-09-12T21:33:54.177Z,12.68
2022-09-12T21:36:25.119Z,12.67
2022-09-12T21:38:53.283Z,12.67
2022-09-12T21:41:21.457Z,12.67
2022-09-12T21:43:49.964Z,12.68
2022-09-12T21:46:18.791Z,12.70
2022-09-12T21:48:46.934Z,12.72
2022-09-12T21:51:16.009Z,12.71
2022-09-12T21:53:45.290Z,12.68
2022-09-12T21:56:13.408Z,12.68
2022-09-12T21:58:41.671Z,12.68
2022-09-12T22:01:12.211Z,12.66
2022-09-12T22:03:43.104Z,12.64
2022-09-12T22:06:11.595Z,12.67
2022-09-12T22:08:40.054Z,12.65
2022-09-12T22:11:10.186Z,12.64
2022-09-12T22:13:43.715Z,12.64
2022-09-12T22:16:12.292Z,12.62
2022-09-12T22:18:42.131Z,12.61
2022-09-12T22:21:16.201Z,12.63
2022-09-12T22:24:03.087Z,12.60
2022-09-12T22:26:36.582Z,12.58
2022-09-12T22:29:04.736Z,12.58
2022-09-12T22:31:33.841Z,12.55
2022-09-12T22:34:02.409Z,12.56
2022-09-12T22:36:31.908Z,12.59
2022-09-12T22:39:01.073Z,12.61
2022-09-12T22:41:29.280Z,12.62
2022-09-12T22:43:58.412Z,12.61
2022-09-12T22:46:27.682Z,12.63
2022-09-12T22:48:55.881Z,12.63
2022-09-12T22:51:24.007Z,12.67
2022-09-12T22:53:52.273Z,12.66
2022-09-12T22:56:20.344Z,12.67
2022-09-12T22:58:48.703Z,12.67
2022-09-12T23:01:17.707Z,12.66
2022-09-12T23:03:45.955Z,12.68
2022-09-12T23:06:14.093Z,12.70
2022-09-12T23:08:42.451Z,12.70
2022-09-12T23:11:21.635Z,12.70
2022-09-12T23:13:51.063Z,12.69
2022-09-12T23:16:23.560Z,12.71
2022-09-12T23:18:51.830Z,12.70
2022-09-12T23:21:21.924Z,12.69
2022-09-12T23:23:50.862Z,12.67
2022-09-12T23:26:21.655Z,12.68
2022-09-12T23:28:53.028Z,12.68
2022-09-12T23:31:24.526Z,12.67
2022-09-12T23:33:53.734Z,12.70
2022-09-12T23:36:23.068Z,12.70
2022-09-12T23:38:51.858Z,12.70
2022-09-12T23:41:20.433Z,12.69
2022-09-12T23:43:48.711Z,12.68
2022-09-12T23:46:18.387Z,12.68
2022-09-12T23:48:46.893Z,12.67
2022-09-12T23:51:15.695Z,12.66
2022-09-12T23:53:43.907Z,12.63
2022-09-12T23:56:12.027Z,12.54
2022-09-12T23:58:40.009Z,12.52
